createdAt,value
2022-12-16T00:05:13.173Z,100.00
2022-12-16T00:07:58.147Z,100.00
2022-12-16T00:10:55.277Z,100.00
2022-12-16T00:13:40.550Z,100.00
2022-12-16T00:16:25.643Z,100.00
2022-12-16T00:19:10.846Z,100.00
2022-12-16T00:21:56.187Z,100.00
2022-12-16T00:24:42.339Z,100.00
2022-12-16T00:27:27.640Z,100.00
2022-12-16T00:30:13.301Z,100.00
2022-12-16T00:32:58.256Z,100.00
2022-12-16T00:35:46.010Z,100.00
2022-12-16T00:38:31.103Z,100.00
2022-12-16T00:41:16.248Z,100.00
2022-12-16T00:44:01.384Z,100.00
2022-12-16T00:46:46.543Z,100.00
2022-12-16T00:49:31.533Z,100.00
2022-12-16T00:52:16.754Z,100.00
2022-12-16T00:55:02.709Z,100.00
2022-12-16T00:57:47.863Z,100.00
2022-12-16T01:00:32.879Z,100.00
2022-12-16T01:03:21.534Z,100.00
2022-12-16T01:06:09.166Z,100.00
2022-12-16T01:08:54.178Z,100.00
2022-12-16T01:11:40.241Z,100.00
2022-12-16T01:14:25.304Z,100.00
2022-12-16T01:17:10.426Z,100.00
2022-12-16T01:19:55.822Z,100.00
2022-12-16T01:22:41.980Z,100.00
2022-12-16T01:25:27.166Z,100.00
2022-12-16T01:28:12.262Z,100.00
2022-12-16T01:31:01.637Z,100.00
2022-12-16T01:33:47.320Z,100.00
2022-12-16T01:36:32.363Z,100.00
2022-12-16T01:39:17.500Z,100.00
2022-12-16T01:42:02.505Z,100.00
2022-12-16T01:44:52.065Z,100.00
2022-12-16T01:47:37.960Z,100.00
2022-12-16T01:50:23.793Z,100.00
2022-12-16T01:53:09.177Z,100.00
2022-12-16T01:55:56.884Z,100.00
2022-12-16T01:58:43.946Z,100.00
2022-12-16T02:01:29.793Z,100.00
2022-12-16T02:04:15.158Z,100.00
2022-12-16T02:07:01.437Z,100.00
2022-12-16T02:09:46.622Z,100.00
2022-12-16T02:15:52.121Z,100.00
2022-12-16T02:18:43.610Z,100.00
2022-12-16T02:21:47.647Z,100.00
2022-12-16T02:24:50.968Z,100.00
2022-12-16T02:31:09.990Z,100.00
2022-12-16T02:34:13.184Z,100.00
2022-12-16T02:37:17.927Z,100.00
2022-12-16T02:40:11.481Z,100.00
2022-12-16T02:43:11.352Z,100.00
2022-12-16T02:45:56.686Z,100.00
2022-12-16T02:48:41.754Z,100.00
2022-12-16T02:51:27.303Z,100.00
2022-12-16T02:54:13.050Z,100.00
2022-12-16T02:57:07.121Z,100.00
2022-12-16T03:00:13.024Z,100.00
2022-12-16T03:03:10.359Z,100.00
2022-12-16T03:05:57.842Z,100.00
2022-12-16T03:08:47.755Z,100.00
2022-12-16T03:11:33.636Z,100.00
2022-12-16T03:14:22.985Z,100.00
2022-12-16T03:20:23.530Z,100.00
2022-12-16T03:23:13.472Z,100.00
2022-12-16T03:26:04.839Z,100.00
2022-12-16T03:28:56.167Z,100.00
2022-12-16T03:31:51.247Z,100.00
2022-12-16T03:38:14.278Z,100.00
2022-12-16T03:41:01.072Z,100.00
2022-12-16T03:43:46.644Z,100.00
2022-12-16T03:46:32.197Z,100.00
2022-12-16T03:49:17.381Z,100.00
2022-12-16T03:55:06.280Z,100.00
2022-12-16T03:57:51.752Z,100.00
2022-12-16T04:00:37.056Z,100.00
2022-12-16T04:03:26.607Z,100.00
2022-12-16T04:06:11.923Z,100.00
2022-12-16T04:12:18.613Z,100.00
2022-12-16T04:15:24.106Z,100.00
2022-12-16T04:18:34.081Z,100.00
2022-12-16T04:21:38.129Z,100.00
2022-12-16T04:27:30.439Z,100.00
2022-12-16T04:30:20.882Z,100.00
2022-12-16T04:33:35.094Z,100.00
2022-12-16T04:36:39.274Z,100.00
2022-12-16T04:39:43.028Z,100.00
2022-12-16T04:46:09.493Z,100.00
2022-12-16T04:49:13.163Z,100.00
2022-12-16T04:52:16.938Z,100.00
2022-12-16T04:55:20.768Z,100.00
2022-12-16T05:01:46.798Z,100.00
2022-12-16T05:04:50.571Z,100.00
2022-12-16T05:07:54.341Z,100.00
2022-12-16T05:10:58.289Z,100.00
2022-12-16T05:14:02.218Z,100.00
2022-12-16T05:17:05.990Z,100.00
2022-12-16T05:20:09.810Z,100.00
2022-12-16T05:23:17.043Z,100.00
2022-12-16T05:26:20.789Z,100.00
2022-12-16T05:29:24.669Z,100.00
2022-12-16T05:32:44.038Z,100.00
2022-12-16T05:36:07.597Z,100.00
2022-12-16T05:39:11.886Z,100.00
2022-12-16T05:42:15.709Z,100.00
2022-12-16T05:45:19.384Z,100.00
2022-12-16T05:48:23.391Z,100.00
2022-12-16T05:51:27.089Z,100.00
2022-12-16T05:54:30.900Z,100.00
2022-12-16T05:57:34.797Z,100.00
2022-12-16T06:00:38.787Z,100.00
2022-12-16T06:03:42.674Z,100.00
2022-12-16T06:06:46.363Z,100.00
2022-12-16T06:09:58.660Z,100.00
2022-12-16T06:13:06.087Z,100.00
2022-12-16T06:16:09.909Z,100.00
2022-12-16T06:19:13.707Z,100.00
2022-12-16T06:22:17.826Z,100.00
2022-12-16T06:25:22.715Z,100.00
2022-12-16T06:28:26.383Z,100.00
2022-12-16T06:31:30.169Z,100.00
2022-12-16T06:34:33.890Z,100.00
2022-12-16T06:37:37.785Z,100.00
2022-12-16T06:40:41.639Z,100.00
2022-12-16T06:43:45.511Z,100.00
2022-12-16T06:46:49.466Z,100.00
2022-12-16T06:49:53.393Z,100.00
2022-12-16T06:52:57.433Z,100.00
2022-12-16T06:56:01.282Z,99.89
2022-12-16T06:59:05.275Z,100.00
2022-12-16T07:02:09.187Z,100.00
2022-12-16T07:05:13.047Z,99.70
2022-12-16T07:08:16.892Z,99.74
2022-12-16T07:11:20.683Z,100.00
2022-12-16T07:14:24.506Z,100.00
2022-12-16T07:17:28.720Z,99.86
2022-12-16T07:20:32.192Z,99.69
2022-12-16T07:23:36.017Z,99.91
2022-12-16T07:26:39.671Z,99.85
2022-12-16T07:29:43.351Z,99.52
2022-12-16T07:32:47.261Z,99.20
2022-12-16T07:35:50.948Z,98.88
2022-12-16T07:38:54.763Z,98.95
2022-12-16T07:41:58.662Z,98.82
2022-12-16T07:45:02.480Z,98.99
2022-12-16T07:48:10.100Z,98.95
2022-12-16T07:51:13.955Z,98.37
2022-12-16T07:54:17.888Z,99.30
2022-12-16T07:57:21.814Z,99.35
2022-12-16T08:00:26.406Z,98.78
2022-12-16T08:03:38.074Z,98.46
2022-12-16T08:06:42.538Z,98.81
2022-12-16T08:09:46.493Z,98.38
2022-12-16T08:12:50.362Z,98.53
2022-12-16T08:15:54.332Z,98.16
2022-12-16T08:18:58.273Z,97.17
2022-12-16T08:22:02.237Z,97.73
2022-12-16T08:25:06.043Z,97.76
2022-12-16T08:28:14.479Z,97.59
2022-12-16T08:31:18.495Z,97.53
2022-12-16T08:34:22.391Z,97.07
2022-12-16T08:37:26.099Z,96.78
2022-12-16T08:40:37.326Z,96.45
2022-12-16T08:43:41.074Z,96.83
2022-12-16T08:46:45.214Z,96.99
2022-12-16T08:49:48.983Z,97.07
2022-12-16T08:52:52.882Z,97.33
2022-12-16T08:55:56.580Z,97.47
2022-12-16T08:59:00.307Z,96.94
2022-12-16T09:02:04.160Z,97.22
2022-12-16T09:05:08.188Z,97.41
2022-12-16T09:08:18.384Z,97.73
2022-12-16T09:11:22.191Z,98.78
2022-12-16T09:14:26.132Z,98.02
2022-12-16T09:17:30.035Z,98.16
2022-12-16T09:20:34.439Z,97.28
2022-12-16T09:23:38.684Z,97.15
2022-12-16T09:26:45.833Z,97.32
2022-12-16T09:29:54.165Z,97.99
2022-12-16T09:33:03.562Z,98.51
2022-12-16T09:36:07.820Z,97.44
2022-12-16T09:39:11.570Z,97.27
2022-12-16T09:42:52.464Z,97.85
2022-12-16T09:45:59.116Z,97.86
2022-12-16T09:49:15.412Z,98.35
2022-12-16T09:52:21.838Z,98.29
2022-12-16T09:55:44.411Z,98.68
2022-12-16T09:58:59.659Z,98.60
2022-12-16T10:02:03.733Z,98.65
2022-12-16T10:05:11.034Z,98.80
2022-12-16T10:08:36.668Z,99.03
2022-12-16T10:11:52.269Z,98.63
2022-12-16T10:15:17.199Z,98.56
2022-12-16T10:18:29.968Z,98.84
2022-12-16T10:21:40.370Z,99.34
2022-12-16T10:25:09.653Z,99.97
2022-12-16T10:28:22.889Z,99.88
2022-12-16T10:31:35.936Z,98.45
2022-12-16T10:34:48.744Z,99.53
2022-12-16T10:37:56.640Z,100.00
2022-12-16T10:41:00.507Z,99.80
2022-12-16T10:44:06.574Z,100.00
2022-12-16T10:47:10.229Z,100.00
2022-12-16T10:50:14.515Z,100.00
2022-12-16T10:53:30.525Z,100.00
2022-12-16T10:56:53.403Z,100.00
2022-12-16T10:59:59.474Z,100.00
2022-12-16T11:03:03.591Z,100.00
2022-12-16T11:06:07.740Z,100.00
2022-12-16T11:09:11.518Z,100.00
2022-12-16T11:12:32.978Z,100.00
2022-12-16T11:15:44.669Z,100.00
2022-12-16T11:18:48.603Z,100.00
2022-12-16T11:22:03.027Z,100.00
2022-12-16T11:25:25.169Z,100.00
2022-12-16T11:28:35.754Z,100.00
2022-12-16T11:31:39.921Z,100.00
2022-12-16T11:34:43.767Z,100.00
2022-12-16T11:37:50.224Z,100.00
2022-12-16T11:40:53.788Z,100.00
2022-12-16T11:44:02.831Z,99.85
2022-12-16T11:47:06.772Z,99.86
2022-12-16T11:50:10.625Z,99.53
2022-12-16T11:53:15.464Z,98.68
2022-12-16T11:56:20.717Z,98.97
2022-12-16T11:59:59.852Z,97.94
2022-12-16T12:03:11.095Z,97.96
2022-12-16T12:06:17.832Z,96.97
2022-12-16T12:09:31.008Z,97.36
2022-12-16T12:12:51.146Z,96.57
2022-12-16T12:16:04.490Z,96.67
2022-12-16T12:19:17.006Z,96.49
2022-12-16T12:22:32.030Z,95.80
2022-12-16T12:25:43.973Z,95.28
2022-12-16T12:29:41.257Z,95.15
2022-12-16T12:32:59.592Z,94.90
2022-12-16T12:36:12.649Z,94.56
2022-12-16T12:39:22.673Z,94.76
2022-12-16T12:42:26.594Z,94.68
2022-12-16T12:45:53.609Z,94.30
2022-12-16T12:49:43.523Z,93.53
2022-12-16T12:52:50.360Z,93.73
2022-12-16T12:56:00.730Z,93.25
2022-12-16T12:59:07.955Z,92.86
2022-12-16T13:02:14.455Z,92.77
2022-12-16T13:05:24.139Z,92.67
2022-12-16T13:08:50.471Z,92.21
2022-12-16T13:11:55.830Z,91.53
2022-12-16T13:15:06.600Z,91.73
2022-12-16T13:18:20.004Z,91.47
2022-12-16T13:21:56.603Z,91.54
2022-12-16T13:25:07.503Z,91.09
2022-12-16T13:28:15.345Z,91.12
2022-12-16T13:31:25.522Z,91.30
2022-12-16T13:34:32.800Z,91.13
2022-12-16T13:37:45.818Z,90.86
2022-12-16T13:41:12.472Z,91.07
2022-12-16T13:44:18.005Z,91.05
2022-12-16T13:47:21.838Z,90.98
2022-12-16T13:50:59.092Z,90.85
2022-12-16T13:54:07.672Z,90.98
2022-12-16T13:57:11.572Z,90.46
2022-12-16T14:00:18.488Z,91.00
2022-12-16T14:03:29.409Z,91.00
2022-12-16T14:06:40.932Z,91.00
2022-12-16T14:09:54.564Z,91.02
2022-12-16T14:13:02.457Z,91.14
2022-12-16T14:16:06.417Z,91.27
2022-12-16T14:19:32.269Z,91.38
2022-12-16T14:22:59.232Z,91.44
2022-12-16T14:26:04.217Z,91.82
2022-12-16T14:29:08.213Z,91.85
2022-12-16T14:32:12.118Z,91.88
2022-12-16T14:35:20.907Z,91.91
2022-12-16T14:38:47.793Z,92.60
2022-12-16T14:41:51.878Z,92.83
2022-12-16T14:44:56.095Z,93.36
2022-12-16T14:47:59.982Z,93.33
2022-12-16T14:51:03.951Z,93.01
2022-12-16T14:54:07.785Z,92.87
2022-12-16T14:57:16.263Z,93.33
2022-12-16T15:00:26.166Z,93.51
2022-12-16T15:03:51.414Z,93.32
2022-12-16T15:07:01.423Z,93.47
2022-12-16T15:10:07.886Z,93.44
2022-12-16T15:13:11.834Z,93.51
2022-12-16T15:16:15.864Z,93.48
2022-12-16T15:19:20.964Z,93.67
2022-12-16T15:22:24.941Z,93.61
2022-12-16T15:25:42.227Z,94.00
2022-12-16T15:29:06.176Z,94.36
2022-12-16T15:32:10.059Z,94.34
2022-12-16T15:35:14.001Z,94.22
2022-12-16T15:38:17.999Z,94.23
2022-12-16T15:41:23.776Z,93.90
2022-12-16T15:44:43.315Z,93.94
2022-12-16T15:47:52.369Z,93.22
2022-12-16T15:50:56.198Z,93.06
2022-12-16T15:53:59.800Z,92.84
2022-12-16T15:57:04.662Z,93.21
2022-12-16T16:00:16.258Z,93.79
2022-12-16T16:03:20.186Z,94.11
2022-12-16T16:06:34.003Z,93.93
2022-12-16T16:09:46.996Z,93.87
2022-12-16T16:12:50.885Z,93.96
2022-12-16T16:15:54.684Z,94.06
2022-12-16T16:18:59.939Z,93.34
2022-12-16T16:22:05.816Z,93.74
2022-12-16T16:25:09.460Z,93.80
2022-12-16T16:28:13.387Z,92.63
2022-12-16T16:31:17.205Z,93.64
2022-12-16T16:34:21.718Z,93.31
2022-12-16T16:37:34.944Z,94.26
2022-12-16T16:41:00.075Z,93.78
2022-12-16T16:44:04.029Z,93.88
2022-12-16T16:47:07.780Z,93.76
2022-12-16T16:50:14.784Z,95.07
2022-12-16T16:53:22.859Z,94.60
2022-12-16T16:56:29.147Z,93.93
2022-12-16T16:59:33.203Z,93.18
2022-12-16T17:02:41.356Z,92.77
2022-12-16T17:05:45.518Z,91.96
2022-12-16T17:08:49.346Z,91.88
2022-12-16T17:11:53.819Z,91.95
2022-12-16T17:14:57.686Z,91.71
2022-12-16T17:18:01.551Z,91.62
2022-12-16T17:21:05.325Z,91.35
2022-12-16T17:24:09.450Z,91.27
2022-12-16T17:27:13.020Z,90.60
2022-12-16T17:30:17.023Z,91.57
2022-12-16T17:33:20.799Z,92.66
2022-12-16T17:36:29.990Z,94.19
2022-12-16T17:39:35.215Z,95.43
2022-12-16T17:42:44.707Z,95.64
2022-12-16T17:45:49.912Z,96.20
2022-12-16T17:48:53.856Z,100.00
2022-12-16T17:51:58.107Z,98.34
2022-12-16T17:55:01.859Z,88.09
2022-12-16T17:58:05.847Z,87.06
2022-12-16T18:01:09.805Z,90.19
2022-12-16T18:04:13.812Z,92.67
2022-12-16T18:07:17.554Z,93.10
2022-12-16T18:10:21.479Z,92.96
2022-12-16T18:13:25.626Z,94.64
2022-12-16T18:16:29.513Z,95.55
2022-12-16T18:19:34.242Z,97.09
2022-12-16T18:22:38.186Z,96.37
2022-12-16T18:25:41.964Z,96.83
2022-12-16T18:28:45.773Z,97.42
2022-12-16T18:31:49.724Z,96.97
2022-12-16T18:34:53.275Z,94.35
2022-12-16T18:37:57.204Z,95.17
2022-12-16T18:41:01.046Z,95.42
2022-12-16T18:44:04.857Z,95.53
2022-12-16T18:47:08.870Z,95.29
2022-12-16T18:50:12.558Z,96.43
2022-12-16T18:53:16.424Z,96.51
2022-12-16T18:56:22.342Z,96.70
2022-12-16T18:59:26.128Z,97.15
2022-12-16T19:02:30.820Z,97.55
2022-12-16T19:05:34.518Z,96.70
2022-12-16T19:08:38.323Z,97.25
2022-12-16T19:11:42.244Z,97.52
2022-12-16T19:14:46.290Z,97.48
2022-12-16T19:17:50.207Z,98.36
2022-12-16T19:20:54.088Z,98.34
2022-12-16T19:24:00.978Z,98.40
2022-12-16T19:27:05.407Z,99.68
2022-12-16T19:30:10.420Z,99.65
2022-12-16T19:33:14.025Z,99.88
2022-12-16T19:36:18.131Z,100.00
2022-12-16T19:39:21.987Z,100.00
2022-12-16T19:42:26.067Z,100.00
2022-12-16T19:45:30.437Z,100.00
2022-12-16T19:48:47.973Z,100.00
2022-12-16T19:51:51.773Z,100.00
2022-12-16T19:54:56.211Z,100.00
2022-12-16T19:57:59.928Z,100.00
2022-12-16T20:01:03.812Z,100.00
2022-12-16T20:04:11.973Z,100.00
2022-12-16T20:07:17.809Z,100.00
2022-12-16T20:10:30.267Z,100.00
2022-12-16T20:13:33.808Z,100.00
2022-12-16T20:16:37.661Z,100.00
2022-12-16T20:19:41.720Z,99.90
2022-12-16T20:22:45.610Z,99.70
2022-12-16T20:25:49.516Z,99.25
2022-12-16T20:28:53.200Z,98.52
2022-12-16T20:32:00.237Z,98.61
2022-12-16T20:35:04.143Z,98.40
2022-12-16T20:38:08.005Z,99.10
2022-12-16T20:41:20.540Z,98.88
2022-12-16T20:44:24.381Z,98.52
2022-12-16T20:47:28.133Z,98.54
2022-12-16T20:50:32.225Z,97.93
2022-12-16T20:53:36.392Z,98.02
2022-12-16T20:56:40.566Z,97.68
2022-12-16T20:59:44.333Z,98.02
2022-12-16T21:02:48.249Z,97.23
2022-12-16T21:05:52.563Z,97.74
2022-12-16T21:09:01.591Z,97.77
2022-12-16T21:12:04.877Z,97.59
2022-12-16T21:15:08.824Z,97.40
2022-12-16T21:18:13.496Z,96.78
2022-12-16T21:21:17.531Z,96.63
2022-12-16T21:24:31.985Z,96.00
2022-12-16T21:27:35.442Z,95.70
2022-12-16T21:30:39.511Z,95.66
2022-12-16T21:33:54.001Z,96.23
2022-12-16T21:36:59.082Z,95.92
2022-12-16T21:40:02.873Z,95.92
2022-12-16T21:43:06.968Z,96.05
2022-12-16T21:46:12.395Z,96.02
2022-12-16T21:49:16.317Z,95.54
2022-12-16T21:52:20.074Z,95.97
2022-12-16T21:55:24.441Z,96.36
2022-12-16T21:58:29.897Z,96.83
2022-12-16T22:01:33.863Z,96.68
2022-12-16T22:04:37.654Z,96.17
2022-12-16T22:07:41.517Z,95.54
2022-12-16T22:10:45.656Z,96.17
2022-12-16T22:13:49.685Z,96.45
2022-12-16T22:16:53.650Z,96.41
2022-12-16T22:19:57.412Z,96.94
2022-12-16T22:23:01.077Z,96.61
2022-12-16T22:26:21.703Z,96.31
2022-12-16T22:29:25.438Z,96.25
2022-12-16T22:32:29.493Z,96.10
2022-12-16T22:35:33.324Z,96.01
2022-12-16T22:38:37.208Z,95.85
2022-12-16T22:41:41.120Z,95.58
2022-12-16T22:44:44.966Z,95.55
2022-12-16T22:47:49.835Z,95.52
2022-12-16T22:50:53.582Z,95.90
2022-12-16T22:53:59.838Z,95.78
2022-12-16T22:57:03.730Z,96.61
2022-12-16T23:00:07.646Z,96.95
2022-12-16T23:03:11.494Z,96.74
2022-12-16T23:06:15.319Z,96.75
2022-12-16T23:09:19.129Z,97.38
2022-12-16T23:12:23.436Z,97.00
2022-12-16T23:15:30.332Z,97.13
2022-12-16T23:18:34.257Z,96.29
2022-12-16T23:21:38.428Z,96.01
2022-12-16T23:24:42.266Z,95.88
2022-12-16T23:27:46.225Z,95.32
2022-12-16T23:30:50.131Z,95.30
2022-12-16T23:33:53.801Z,95.88
2022-12-16T23:37:00.575Z,96.25
2022-12-16T23:40:04.471Z,95.50
2022-12-16T23:43:08.152Z,95.92
2022-12-16T23:46:12.110Z,95.76
2022-12-16T23:49:15.932Z,95.67
2022-12-16T23:52:19.852Z,95.75
2022-12-16T23:55:24.282Z,95.40
2022-12-16T23:58:28.637Z,95.33
